createdAt,value
2023-01-20T00:01:43.418Z,3.83
2023-01-20T00:04:10.624Z,3.45
2023-01-20T00:06:37.837Z,2.70
2023-01-20T00:09:05.981Z,2.45
2023-01-20T00:11:34.258Z,2.75
2023-01-20T00:14:03.126Z,2.92
2023-01-20T00:16:32.133Z,3.42
2023-01-20T00:18:59.627Z,2.22
2023-01-20T00:21:26.888Z,3.25
2023-01-20T00:23:54.803Z,3.35
2023-01-20T00:26:24.468Z,2.50
2023-01-20T00:28:55.058Z,3.90
2023-01-20T00:31:25.382Z,2.40
2023-01-20T00:33:54.594Z,2.60
2023-01-20T00:36:23.008Z,2.70
2023-01-20T00:38:50.424Z,3.53
2023-01-20T00:41:18.170Z,2.95
2023-01-20T00:43:45.743Z,2.85
2023-01-20T00:46:13.276Z,3.15
2023-01-20T00:48:40.513Z,2.38
2023-01-20T00:51:09.143Z,3.08
2023-01-20T00:53:36.811Z,2.65
2023-01-20T00:56:04.657Z,2.45
2023-01-20T00:58:31.889Z,2.45
2023-01-20T01:00:59.656Z,2.78
2023-01-20T01:03:28.217Z,2.47
2023-01-20T01:06:05.380Z,2.83
2023-01-20T01:08:33.860Z,2.22
2023-01-20T01:11:01.067Z,1.90
2023-01-20T01:13:28.231Z,2.13
2023-01-20T01:15:55.431Z,2.08
2023-01-20T01:18:22.721Z,2.00
2023-01-20T01:20:49.932Z,1.65
2023-01-20T01:23:17.232Z,2.38
2023-01-20T01:25:44.455Z,2.13
2023-01-20T01:28:11.853Z,1.83
2023-01-20T01:30:39.042Z,2.30
2023-01-20T01:33:06.321Z,2.55
2023-01-20T01:35:33.531Z,2.42
2023-01-20T01:38:00.701Z,2.35
2023-01-20T01:40:28.126Z,2.88
2023-01-20T01:42:55.345Z,1.77
2023-01-20T01:45:25.711Z,2.00
2023-01-20T01:48:39.546Z,1.58
2023-01-20T01:51:13.345Z,1.73
2023-01-20T01:53:44.087Z,1.50
2023-01-20T01:56:11.796Z,1.85
2023-01-20T01:58:42.256Z,2.40
2023-01-20T02:01:09.609Z,2.03
2023-01-20T02:03:53.801Z,2.03
2023-01-20T02:06:24.443Z,1.95
2023-01-20T02:08:52.917Z,1.30
2023-01-20T02:11:20.177Z,1.55
2023-01-20T02:13:47.618Z,1.35
2023-01-20T02:16:36.460Z,1.42
2023-01-20T02:19:33.413Z,1.40
2023-01-20T02:22:08.699Z,1.40
2023-01-20T02:25:13.236Z,1.73
2023-01-20T02:27:59.848Z,1.40
2023-01-20T02:30:52.106Z,2.97
2023-01-20T02:33:31.812Z,1.20
2023-01-20T02:36:24.875Z,1.40
2023-01-20T02:39:01.323Z,1.27
2023-01-20T02:41:58.676Z,1.00
2023-01-20T02:44:39.004Z,1.85
2023-01-20T02:47:33.195Z,1.40
2023-01-20T02:50:24.255Z,1.17
2023-01-20T02:52:54.826Z,3.13
2023-01-20T02:55:37.484Z,0.98
2023-01-20T02:58:10.922Z,1.27
2023-01-20T03:01:02.501Z,1.40
2023-01-20T03:03:35.291Z,1.17
2023-01-20T03:06:06.239Z,1.20
2023-01-20T03:08:34.474Z,0.85
2023-01-20T03:11:06.080Z,1.25
2023-01-20T03:13:46.664Z,1.40
2023-01-20T03:16:21.141Z,0.88
2023-01-20T03:18:49.700Z,0.85
2023-01-20T03:21:17.124Z,1.05
2023-01-20T03:23:55.919Z,1.15
2023-01-20T03:26:23.988Z,1.20
2023-01-20T03:28:51.524Z,0.70
2023-01-20T03:31:21.600Z,0.80
2023-01-20T03:33:51.725Z,0.70
2023-01-20T03:36:21.743Z,1.00
2023-01-20T03:38:49.585Z,0.95
2023-01-20T03:41:23.008Z,0.70
2023-01-20T03:44:28.162Z,0.73
2023-01-20T03:47:21.709Z,0.60
2023-01-20T03:49:56.266Z,0.90
2023-01-20T03:52:47.703Z,0.90
2023-01-20T03:55:37.519Z,0.60
2023-01-20T03:58:16.904Z,0.70
2023-01-20T04:00:47.605Z,0.75
2023-01-20T04:03:27.288Z,0.88
2023-01-20T04:05:55.815Z,0.77
2023-01-20T04:08:25.914Z,0.52
2023-01-20T04:10:55.691Z,0.60
2023-01-20T04:13:22.897Z,0.70
2023-01-20T04:15:50.324Z,1.23
2023-01-20T04:18:20.212Z,0.60
2023-01-20T04:21:10.537Z,0.60
2023-01-20T04:23:42.512Z,0.60
2023-01-20T04:26:09.768Z,0.65
2023-01-20T04:28:36.962Z,0.60
2023-01-20T04:31:04.294Z,0.60
2023-01-20T04:33:31.476Z,0.50
2023-01-20T04:35:58.641Z,0.85
2023-01-20T04:38:25.820Z,0.80
2023-01-20T04:40:53.021Z,0.50
2023-01-20T04:43:20.306Z,0.50
2023-01-20T04:45:47.500Z,0.75
2023-01-20T04:48:14.801Z,0.65
2023-01-20T04:50:42.343Z,0.80
2023-01-20T04:53:16.918Z,1.00
2023-01-20T04:55:44.111Z,0.70
2023-01-20T04:58:11.308Z,0.70
2023-01-20T05:00:38.634Z,0.70
2023-01-20T05:03:06.360Z,0.68
2023-01-20T05:05:33.695Z,1.02
2023-01-20T05:08:01.003Z,1.05
2023-01-20T05:10:28.224Z,1.10
2023-01-20T05:12:55.385Z,0.77
2023-01-20T05:15:22.579Z,1.17
2023-01-20T05:17:49.795Z,0.70
2023-01-20T05:20:19.113Z,0.60
2023-01-20T05:22:47.032Z,0.70
2023-01-20T05:25:14.773Z,0.52
2023-01-20T05:27:42.304Z,0.60
2023-01-20T05:30:10.400Z,0.50
2023-01-20T05:32:37.764Z,0.82
2023-01-20T05:35:05.503Z,0.70
2023-01-20T05:37:32.681Z,0.60
2023-01-20T05:39:59.833Z,0.75
2023-01-20T05:42:27.026Z,0.70
2023-01-20T05:44:54.266Z,0.45
2023-01-20T05:47:21.454Z,0.63
2023-01-20T05:49:48.674Z,0.60
2023-01-20T05:52:15.922Z,1.00
2023-01-20T05:54:43.174Z,0.80
2023-01-20T05:57:10.422Z,1.05
2023-01-20T05:59:37.700Z,0.68
2023-01-20T06:02:04.856Z,1.30
2023-01-20T06:04:32.131Z,0.70
2023-01-20T06:06:59.344Z,0.93
2023-01-20T06:09:26.509Z,0.70
2023-01-20T06:11:53.711Z,0.55
2023-01-20T06:14:20.970Z,0.70
2023-01-20T06:16:48.176Z,2.05
2023-01-20T06:19:15.433Z,1.10
2023-01-20T06:21:42.627Z,0.73
2023-01-20T06:24:09.778Z,0.82
2023-01-20T06:26:36.946Z,0.60
2023-01-20T06:29:04.127Z,0.90
2023-01-20T06:31:31.381Z,0.50
2023-01-20T06:33:58.573Z,1.00
2023-01-20T06:36:25.985Z,0.70
2023-01-20T06:38:53.550Z,0.73
2023-01-20T06:41:21.222Z,0.85
2023-01-20T06:43:50.224Z,0.60
2023-01-20T06:46:17.893Z,1.02
2023-01-20T06:48:45.788Z,1.02
2023-01-20T06:51:16.510Z,0.60
2023-01-20T06:53:44.158Z,0.70
2023-01-20T06:56:13.158Z,0.60
2023-01-20T06:58:40.643Z,0.68
2023-01-20T07:01:12.591Z,0.60
2023-01-20T07:03:41.662Z,0.70
2023-01-20T07:06:16.691Z,0.77
2023-01-20T07:08:45.234Z,0.60
2023-01-20T07:11:12.888Z,0.80
2023-01-20T07:13:40.152Z,1.05
2023-01-20T07:16:10.429Z,0.60
2023-01-20T07:18:38.984Z,1.00
2023-01-20T07:21:06.683Z,0.70
2023-01-20T07:23:33.924Z,0.70
2023-01-20T07:26:03.467Z,1.15
2023-01-20T07:28:32.344Z,0.82
2023-01-20T07:31:10.897Z,0.82
2023-01-20T07:33:38.676Z,0.80
2023-01-20T07:36:07.412Z,1.13
2023-01-20T07:38:34.906Z,0.70
2023-01-20T07:41:05.234Z,0.80
2023-01-20T07:43:33.279Z,1.00
2023-01-20T07:46:02.921Z,1.17
2023-01-20T07:48:32.202Z,1.10
2023-01-20T07:51:07.843Z,1.00
2023-01-20T07:53:40.382Z,1.00
2023-01-20T07:56:11.104Z,1.58
2023-01-20T07:58:39.028Z,1.02
2023-01-20T08:01:11.662Z,0.75
2023-01-20T08:03:39.095Z,0.70
2023-01-20T08:06:08.959Z,0.82
2023-01-20T08:08:36.511Z,0.80
2023-01-20T08:11:05.149Z,1.02
2023-01-20T08:13:32.945Z,0.80
2023-01-20T08:16:01.620Z,0.95
2023-01-20T08:18:29.039Z,0.60
2023-01-20T08:20:56.201Z,0.73
2023-01-20T08:23:23.410Z,1.88
2023-01-20T08:25:58.630Z,0.75
2023-01-20T08:28:27.254Z,1.92
2023-01-20T08:30:55.713Z,1.35
2023-01-20T08:33:22.956Z,1.90
2023-01-20T08:35:50.161Z,1.63
2023-01-20T08:38:17.377Z,1.10
2023-01-20T08:40:44.699Z,1.13
2023-01-20T08:43:11.869Z,0.90
2023-01-20T08:45:39.941Z,0.90
2023-01-20T08:48:08.837Z,1.10
2023-01-20T08:50:36.778Z,1.08
2023-01-20T08:53:03.959Z,1.00
2023-01-20T08:55:31.358Z,1.05
2023-01-20T08:57:58.559Z,0.90
2023-01-20T09:00:25.931Z,0.93
2023-01-20T09:02:53.150Z,1.13
2023-01-20T09:05:22.354Z,3.67
2023-01-20T09:07:49.501Z,1.42
2023-01-20T09:10:16.801Z,1.13
2023-01-20T09:12:44.088Z,1.30
2023-01-20T09:15:12.275Z,0.95
2023-01-20T09:17:39.492Z,1.15
2023-01-20T09:20:07.328Z,0.90
2023-01-20T09:22:34.784Z,1.42
2023-01-20T09:25:02.023Z,0.82
2023-01-20T09:27:29.180Z,1.33
2023-01-20T09:29:56.337Z,1.13
2023-01-20T09:32:23.483Z,0.95
2023-01-20T09:34:50.655Z,1.00
2023-01-20T09:37:36.361Z,1.20
2023-01-20T09:40:22.441Z,1.05
2023-01-20T09:43:22.041Z,1.58
2023-01-20T09:46:09.163Z,1.23
2023-01-20T09:49:00.791Z,1.40
2023-01-20T09:52:12.185Z,2.83
2023-01-20T09:54:47.432Z,1.73
2023-01-20T09:57:15.228Z,2.95
2023-01-20T09:59:50.847Z,1.42
2023-01-20T10:02:23.648Z,1.45
2023-01-20T10:05:16.880Z,1.20
2023-01-20T10:08:17.502Z,1.33
2023-01-20T10:10:52.523Z,1.00
2023-01-20T10:13:36.244Z,2.00
2023-01-20T10:16:08.891Z,1.08
2023-01-20T10:19:08.208Z,1.27
2023-01-20T10:21:46.060Z,1.80
2023-01-20T10:24:39.604Z,1.27
2023-01-20T10:27:06.808Z,1.27
2023-01-20T10:29:41.789Z,1.30
2023-01-20T10:32:34.139Z,1.20
2023-01-20T10:35:10.674Z,1.15
2023-01-20T10:37:38.861Z,1.58
2023-01-20T10:40:24.589Z,1.50
2023-01-20T10:42:57.048Z,1.42
2023-01-20T10:45:47.492Z,1.20
2023-01-20T10:48:24.500Z,1.13
2023-01-20T10:51:04.071Z,1.58
2023-01-20T10:54:13.349Z,2.35
2023-01-20T10:56:45.825Z,2.88
2023-01-20T10:59:16.908Z,1.80
2023-01-20T11:01:59.225Z,1.65
2023-01-20T11:04:36.133Z,1.70
2023-01-20T11:07:03.858Z,1.55
2023-01-20T11:09:37.669Z,1.80
2023-01-20T11:12:14.306Z,1.27
2023-01-20T11:14:42.395Z,1.98
2023-01-20T11:17:18.148Z,1.52
2023-01-20T11:19:48.689Z,2.25
2023-01-20T11:22:22.636Z,1.40
2023-01-20T11:24:55.867Z,1.52
2023-01-20T11:27:27.022Z,2.72
2023-01-20T11:30:04.006Z,1.90
2023-01-20T11:32:31.167Z,2.10
2023-01-20T11:34:59.349Z,2.15
2023-01-20T11:37:38.146Z,1.23
2023-01-20T11:40:27.721Z,1.98
2023-01-20T11:42:55.580Z,1.77
2023-01-20T11:45:26.091Z,1.50
2023-01-20T11:48:04.367Z,1.83
2023-01-20T11:50:56.166Z,1.27
2023-01-20T11:53:32.046Z,1.08
2023-01-20T11:56:05.877Z,1.65
2023-01-20T11:58:48.115Z,0.93
2023-01-20T12:01:25.283Z,2.05
2023-01-20T12:04:26.178Z,0.95
2023-01-20T12:07:14.984Z,1.15
2023-01-20T12:09:46.931Z,1.58
2023-01-20T12:12:41.545Z,1.60
2023-01-20T12:15:29.444Z,1.30
2023-01-20T12:18:18.421Z,1.20
2023-01-20T12:20:56.266Z,1.30
2023-01-20T12:23:39.302Z,1.70
2023-01-20T12:26:09.786Z,0.90
2023-01-20T12:28:56.362Z,1.20
2023-01-20T12:31:24.851Z,1.40
2023-01-20T12:34:00.723Z,0.90
2023-01-20T12:36:59.882Z,1.23
2023-01-20T12:39:30.013Z,1.30
2023-01-20T12:42:11.313Z,1.75
2023-01-20T12:44:49.730Z,1.55
2023-01-20T12:47:41.733Z,1.52
2023-01-20T12:50:48.989Z,1.38
2023-01-20T12:53:39.389Z,1.80
2023-01-20T12:56:45.717Z,1.75
2023-01-20T12:59:45.212Z,1.05
2023-01-20T13:02:44.225Z,1.67
2023-01-20T13:05:26.428Z,1.55
2023-01-20T13:08:10.843Z,1.55
2023-01-20T13:10:40.834Z,2.05
2023-01-20T13:13:56.718Z,2.25
2023-01-20T13:16:42.677Z,4.55
2023-01-20T13:19:32.287Z,6.15
2023-01-20T13:22:13.237Z,1.10
2023-01-20T13:24:44.595Z,2.45
2023-01-20T13:27:13.964Z,1.15
2023-01-20T13:29:51.639Z,0.93
2023-01-20T13:32:34.225Z,1.13
2023-01-20T13:35:27.568Z,1.23
2023-01-20T13:38:01.361Z,1.40
2023-01-20T13:40:37.763Z,1.10
2023-01-20T13:43:24.949Z,1.30
2023-01-20T13:46:07.274Z,1.40
2023-01-20T13:48:36.575Z,1.70
2023-01-20T13:51:15.932Z,1.05
2023-01-20T13:53:43.551Z,1.00
2023-01-20T13:56:30.651Z,1.48
2023-01-20T13:59:00.668Z,1.10
2023-01-20T14:01:28.312Z,1.20
2023-01-20T14:04:05.708Z,1.45
2023-01-20T14:06:35.797Z,1.15
2023-01-20T14:09:03.678Z,2.08
2023-01-20T14:11:31.485Z,1.35
2023-01-20T14:14:05.837Z,2.90
2023-01-20T14:16:36.143Z,1.73
2023-01-20T14:19:29.855Z,1.15
2023-01-20T14:22:16.384Z,1.13
2023-01-20T14:24:45.759Z,3.63
2023-01-20T14:27:27.313Z,1.92
2023-01-20T14:29:57.406Z,2.08
2023-01-20T14:32:26.237Z,1.10
2023-01-20T14:34:54.152Z,1.45
2023-01-20T14:37:28.704Z,1.20
2023-01-20T14:39:59.204Z,1.13
2023-01-20T14:42:28.870Z,1.10
2023-01-20T14:44:57.927Z,1.55
2023-01-20T14:47:27.165Z,0.90
2023-01-20T14:49:55.146Z,1.40
2023-01-20T14:52:28.923Z,1.48
2023-01-20T14:54:56.783Z,0.88
2023-01-20T14:57:30.908Z,1.00
2023-01-20T15:00:25.643Z,1.48
2023-01-20T15:03:09.585Z,1.77
2023-01-20T15:05:52.548Z,2.55
2023-01-20T15:08:33.239Z,1.20
2023-01-20T15:11:21.834Z,0.90
2023-01-20T15:13:53.082Z,1.15
2023-01-20T15:16:25.947Z,1.10
2023-01-20T15:19:22.772Z,1.67
2023-01-20T15:21:52.064Z,1.00
2023-01-20T15:24:34.617Z,1.65
2023-01-20T15:27:17.068Z,1.20
2023-01-20T15:29:59.938Z,1.23
2023-01-20T15:32:27.158Z,1.05
2023-01-20T15:34:54.366Z,1.10
2023-01-20T15:37:21.574Z,1.20
2023-01-20T15:39:48.765Z,1.20
2023-01-20T15:42:16.051Z,1.10
2023-01-20T15:44:43.233Z,1.10
2023-01-20T15:47:21.127Z,1.17
2023-01-20T15:49:48.318Z,1.02
2023-01-20T15:52:15.548Z,1.60
2023-01-20T15:54:42.716Z,2.15
2023-01-20T15:57:14.590Z,1.77
2023-01-20T15:59:45.531Z,1.65
2023-01-20T16:02:21.604Z,0.90
2023-01-20T16:04:49.566Z,2.08
2023-01-20T16:07:19.116Z,1.52
2023-01-20T16:09:47.052Z,1.27
2023-01-20T16:12:16.384Z,1.50
2023-01-20T16:14:44.168Z,1.50
2023-01-20T16:17:17.437Z,1.25
2023-01-20T16:19:45.300Z,2.58
2023-01-20T16:22:13.609Z,1.92
2023-01-20T16:24:42.009Z,1.48
2023-01-20T16:27:35.671Z,1.17
2023-01-20T16:30:02.991Z,0.95
2023-01-20T16:32:30.158Z,3.78
2023-01-20T16:34:57.309Z,1.52
2023-01-20T16:37:24.572Z,1.10
2023-01-20T16:39:51.827Z,0.90
2023-01-20T16:42:19.018Z,1.23
2023-01-20T16:44:46.208Z,2.40
2023-01-20T16:47:13.471Z,1.33
2023-01-20T16:49:40.761Z,1.25
2023-01-20T16:52:08.058Z,1.23
2023-01-20T16:54:35.302Z,2.85
2023-01-20T16:57:02.576Z,1.02
2023-01-20T16:59:29.852Z,2.58
2023-01-20T17:01:57.144Z,1.50
2023-01-20T17:04:24.346Z,1.48
2023-01-20T17:06:53.129Z,1.40
2023-01-20T17:09:20.353Z,1.45
2023-01-20T17:11:47.533Z,1.80
2023-01-20T17:14:15.682Z,1.90
2023-01-20T17:16:43.034Z,1.67
2023-01-20T17:19:10.380Z,1.38
2023-01-20T17:21:39.197Z,2.17
2023-01-20T17:24:07.091Z,2.35
2023-01-20T17:26:34.668Z,3.47
2023-01-20T17:29:03.868Z,3.13
2023-01-20T17:31:34.479Z,2.83
2023-01-20T17:34:01.902Z,2.00
2023-01-20T17:36:29.719Z,1.63
2023-01-20T17:38:58.263Z,3.25
2023-01-20T17:41:25.396Z,1.65
2023-01-20T17:43:52.722Z,2.72
2023-01-20T17:46:22.587Z,3.63
2023-01-20T17:48:50.633Z,3.72
2023-01-20T17:51:23.809Z,2.67
2023-01-20T17:53:51.983Z,1.35
2023-01-20T17:56:20.997Z,1.60
2023-01-20T17:58:49.279Z,1.58
2023-01-20T18:01:25.069Z,2.30
2023-01-20T18:03:54.970Z,1.92
2023-01-20T18:06:24.065Z,1.90
2023-01-20T18:09:00.561Z,2.42
2023-01-20T18:11:30.677Z,1.70
2023-01-20T18:14:00.547Z,1.70
2023-01-20T18:16:33.932Z,2.65
2023-01-20T18:19:01.972Z,1.90
2023-01-20T18:21:34.793Z,1.50
2023-01-20T18:24:03.520Z,1.85
2023-01-20T18:26:33.839Z,1.83
2023-01-20T18:29:03.331Z,1.00
2023-01-20T18:31:32.436Z,2.13
2023-01-20T18:34:02.064Z,1.90
2023-01-20T18:36:34.067Z,1.38
2023-01-20T18:39:05.419Z,1.42
2023-01-20T18:41:37.360Z,1.23
2023-01-20T18:44:06.085Z,1.17
2023-01-20T18:46:33.707Z,1.30
2023-01-20T18:49:01.359Z,1.58
2023-01-20T18:51:30.193Z,1.00
2023-01-20T18:54:01.680Z,1.23
2023-01-20T18:56:30.103Z,1.17
2023-01-20T18:58:57.268Z,1.45
2023-01-20T19:01:27.875Z,1.00
2023-01-20T19:03:55.189Z,1.27
2023-01-20T19:06:24.947Z,1.13
2023-01-20T19:08:52.951Z,1.30
2023-01-20T19:11:22.890Z,1.70
2023-01-20T19:13:53.479Z,2.10
2023-01-20T19:16:23.290Z,1.60
2023-01-20T19:18:56.417Z,3.30
2023-01-20T19:21:24.970Z,1.70
2023-01-20T19:23:54.420Z,2.17
2023-01-20T19:26:23.266Z,1.98
2023-01-20T19:28:57.542Z,2.20
2023-01-20T19:31:25.196Z,3.20
2023-01-20T19:33:52.590Z,3.00
2023-01-20T19:36:20.540Z,1.92
2023-01-20T19:38:47.925Z,1.80
2023-01-20T19:41:17.811Z,2.25
2023-01-20T19:43:45.659Z,1.70
2023-01-20T19:46:16.513Z,1.92
2023-01-20T19:48:43.785Z,1.90
2023-01-20T19:51:16.095Z,1.92
2023-01-20T19:53:44.366Z,2.65
2023-01-20T19:56:17.084Z,2.35
2023-01-20T19:58:45.864Z,1.42
2023-01-20T20:01:17.700Z,1.48
2023-01-20T20:03:45.022Z,2.72
2023-01-20T20:06:39.449Z,2.17
2023-01-20T20:09:10.902Z,2.13
2023-01-20T20:11:39.148Z,2.35
2023-01-20T20:14:08.278Z,2.05
2023-01-20T20:16:37.031Z,2.00
2023-01-20T20:19:05.439Z,1.63
2023-01-20T20:21:35.506Z,1.65
2023-01-20T20:24:04.225Z,2.10
2023-01-20T20:26:34.984Z,1.52
2023-01-20T20:29:04.222Z,1.63
2023-01-20T20:31:31.807Z,2.33
2023-01-20T20:34:00.470Z,1.95
2023-01-20T20:36:29.738Z,2.55
2023-01-20T20:38:58.888Z,3.80
2023-01-20T20:41:29.070Z,2.25
2023-01-20T20:43:56.826Z,1.40
2023-01-20T20:46:25.320Z,3.67
2023-01-20T20:48:59.256Z,2.95
2023-01-20T20:51:28.280Z,3.97
2023-01-20T20:53:56.284Z,2.15
2023-01-20T20:56:24.597Z,2.00
2023-01-20T20:59:01.530Z,2.38
2023-01-20T21:01:31.650Z,4.40
2023-01-20T21:04:00.572Z,2.65
2023-01-20T21:06:28.992Z,3.10
2023-01-20T21:08:56.723Z,2.03
2023-01-20T21:11:25.057Z,1.45
2023-01-20T21:13:53.099Z,2.17
2023-01-20T21:16:23.237Z,4.93
2023-01-20T21:18:52.335Z,2.28
2023-01-20T21:21:20.856Z,1.85
2023-01-20T21:23:56.067Z,2.53
2023-01-20T21:26:26.657Z,2.33
2023-01-20T21:28:56.598Z,2.17
2023-01-20T21:31:26.878Z,2.45
2023-01-20T21:34:00.647Z,1.58
2023-01-20T21:36:29.212Z,2.20
2023-01-20T21:38:56.454Z,3.25
2023-01-20T21:41:23.729Z,3.08
2023-01-20T21:44:09.458Z,2.20
2023-01-20T21:46:39.813Z,2.72
2023-01-20T21:49:26.685Z,2.60
2023-01-20T21:52:13.907Z,2.47
2023-01-20T21:54:41.521Z,3.00
2023-01-20T21:57:09.183Z,2.65
2023-01-20T21:59:36.697Z,2.05
2023-01-20T22:02:04.223Z,2.53
2023-01-20T22:04:32.424Z,2.97
2023-01-20T22:06:59.947Z,3.33
2023-01-20T22:09:27.225Z,3.17
2023-01-20T22:11:54.596Z,2.30
2023-01-20T22:14:21.925Z,2.80
2023-01-20T22:16:49.239Z,3.33
2023-01-20T22:19:16.673Z,2.28
2023-01-20T22:21:43.884Z,2.70
2023-01-20T22:24:11.550Z,2.00
2023-01-20T22:26:38.844Z,2.53
2023-01-20T22:29:06.216Z,3.10
2023-01-20T22:31:34.366Z,2.35
2023-01-20T22:34:06.456Z,3.25
2023-01-20T22:36:34.383Z,3.00
2023-01-20T22:39:03.222Z,2.92
2023-01-20T22:41:30.921Z,4.35
2023-01-20T22:43:58.697Z,4.10
2023-01-20T22:46:27.550Z,4.00
2023-01-20T22:48:57.012Z,3.58
2023-01-20T22:51:29.063Z,4.25
2023-01-20T22:53:59.235Z,3.38
2023-01-20T22:56:29.145Z,2.65
2023-01-20T22:58:57.437Z,2.78
2023-01-20T23:01:31.354Z,3.30
2023-01-20T23:04:04.645Z,3.65
2023-01-20T23:06:33.780Z,2.78
2023-01-20T23:09:07.127Z,3.65
2023-01-20T23:11:36.499Z,2.95
2023-01-20T23:14:04.212Z,3.45
2023-01-20T23:16:31.525Z,2.83
2023-01-20T23:18:58.828Z,3.53
2023-01-20T23:21:26.082Z,3.58
2023-01-20T23:23:55.970Z,2.95
2023-01-20T23:26:28.480Z,3.00
2023-01-20T23:28:56.875Z,2.80
2023-01-20T23:31:25.471Z,2.15
2023-01-20T23:33:54.300Z,2.03
2023-01-20T23:36:23.831Z,2.10
2023-01-20T23:38:52.832Z,1.88
2023-01-20T23:41:20.347Z,2.38
2023-01-20T23:43:47.656Z,1.95
2023-01-20T23:46:15.138Z,2.25
2023-01-20T23:48:44.641Z,2.67
2023-01-20T23:51:11.961Z,2.13
2023-01-20T23:53:40.463Z,1.17
2023-01-20T23:56:19.749Z,2.00
2023-01-20T23:58:47.331Z,2.40
